createdAt,value
2022-11-23T00:00:36.488Z,3.40
2022-11-23T00:03:04.150Z,3.08
2022-11-23T00:05:31.828Z,3.20
2022-11-23T00:08:00.758Z,3.42
2022-11-23T00:10:28.421Z,3.20
2022-11-23T00:12:56.016Z,3.20
2022-11-23T00:15:23.591Z,3.75
2022-11-23T00:17:51.140Z,2.90
2022-11-23T00:20:18.954Z,2.97
2022-11-23T00:22:46.510Z,3.47
2022-11-23T00:25:15.586Z,3.50
2022-11-23T00:27:43.211Z,3.20
2022-11-23T00:30:11.997Z,3.15
2022-11-23T00:32:39.569Z,2.80
2022-11-23T00:35:07.566Z,3.13
2022-11-23T00:37:35.176Z,3.10
2022-11-23T00:40:02.801Z,2.88
2022-11-23T00:42:37.664Z,3.10
2022-11-23T00:45:06.324Z,3.10
2022-11-23T00:47:33.939Z,2.90
2022-11-23T00:50:01.487Z,2.83
2022-11-23T00:52:29.120Z,3.30
2022-11-23T00:54:56.820Z,3.13
2022-11-23T00:57:24.395Z,3.00
2022-11-23T00:59:53.351Z,2.60
2022-11-23T01:02:21.077Z,3.13
2022-11-23T01:04:48.711Z,2.70
2022-11-23T01:07:16.533Z,3.20
2022-11-23T01:09:44.191Z,2.92
2022-11-23T01:12:11.741Z,2.90
2022-11-23T01:14:39.568Z,2.80
2022-11-23T01:17:08.492Z,3.03
2022-11-23T01:19:36.031Z,2.78
2022-11-23T01:22:03.620Z,2.90
2022-11-23T01:24:31.336Z,3.13
2022-11-23T01:26:58.932Z,2.70
2022-11-23T01:29:26.485Z,2.90
2022-11-23T01:31:54.084Z,2.95
2022-11-23T01:34:23.002Z,2.78
2022-11-23T01:36:50.592Z,3.15
2022-11-23T01:39:18.153Z,3.00
2022-11-23T01:41:46.039Z,2.78
2022-11-23T01:44:30.156Z,2.95
2022-11-23T01:46:58.795Z,2.45
2022-11-23T01:49:28.155Z,2.88
2022-11-23T01:51:56.934Z,2.45
2022-11-23T01:54:26.326Z,2.72
2022-11-23T01:56:54.819Z,2.80
2022-11-23T01:59:22.416Z,2.70
2022-11-23T02:01:49.975Z,3.28
2022-11-23T02:04:19.233Z,2.97
2022-11-23T02:06:48.219Z,2.60
2022-11-23T02:09:16.035Z,2.50
2022-11-23T02:11:43.629Z,2.92
2022-11-23T02:14:11.259Z,2.70
2022-11-23T02:16:38.941Z,2.60
2022-11-23T02:19:07.775Z,2.63
2022-11-23T02:21:35.463Z,3.00
2022-11-23T02:24:06.104Z,3.03
2022-11-23T02:26:35.771Z,2.70
2022-11-23T02:29:04.806Z,2.50
2022-11-23T02:31:32.442Z,2.58
2022-11-23T02:34:00.105Z,2.78
2022-11-23T02:36:39.299Z,2.70
2022-11-23T02:39:11.621Z,2.65
2022-11-23T02:41:42.437Z,2.40
2022-11-23T02:44:14.853Z,2.60
2022-11-23T02:46:42.537Z,2.42
2022-11-23T02:49:10.119Z,2.50
2022-11-23T02:51:37.730Z,2.58
2022-11-23T02:54:05.534Z,2.20
2022-11-23T02:56:33.139Z,2.80
2022-11-23T02:59:02.149Z,2.33
2022-11-23T03:01:29.890Z,2.60
2022-11-23T03:03:57.628Z,2.72
2022-11-23T03:06:25.232Z,2.50
2022-11-23T03:08:52.785Z,2.45
2022-11-23T03:11:20.396Z,2.40
2022-11-23T03:13:47.948Z,2.38
2022-11-23T03:16:17.408Z,2.40
2022-11-23T03:18:45.036Z,2.38
2022-11-23T03:21:12.620Z,2.45
2022-11-23T03:23:40.238Z,2.60
2022-11-23T03:26:12.655Z,2.35
2022-11-23T03:28:40.794Z,2.22
2022-11-23T03:31:08.364Z,2.58
2022-11-23T03:33:37.380Z,2.72
2022-11-23T03:36:05.105Z,2.13
2022-11-23T03:38:32.664Z,2.20
2022-11-23T03:41:00.233Z,2.38
2022-11-23T03:43:27.821Z,2.20
2022-11-23T03:45:55.363Z,2.40
2022-11-23T03:48:23.279Z,2.60
2022-11-23T03:50:52.234Z,2.58
2022-11-23T03:53:19.818Z,2.22
2022-11-23T03:55:47.650Z,2.55
2022-11-23T03:58:15.855Z,2.05
2022-11-23T04:00:43.628Z,2.33
2022-11-23T04:03:11.212Z,2.47
2022-11-23T04:05:38.790Z,2.28
2022-11-23T04:08:07.902Z,2.20
2022-11-23T04:10:35.763Z,2.38
2022-11-23T04:13:03.635Z,2.25
2022-11-23T04:15:31.430Z,2.17
2022-11-23T04:17:59.020Z,2.08
2022-11-23T04:20:27.652Z,2.40
2022-11-23T04:22:55.322Z,2.60
2022-11-23T04:25:24.283Z,2.17
2022-11-23T04:27:51.835Z,2.28
2022-11-23T04:30:19.644Z,2.40
2022-11-23T04:32:47.188Z,2.17
2022-11-23T04:35:14.977Z,2.28
2022-11-23T04:37:42.537Z,2.25
2022-11-23T04:40:11.031Z,2.13
2022-11-23T04:42:39.964Z,2.58
2022-11-23T04:45:08.343Z,2.20
2022-11-23T04:47:35.940Z,2.03
2022-11-23T04:50:03.651Z,2.20
2022-11-23T04:52:31.204Z,2.38
2022-11-23T04:54:58.795Z,2.03
2022-11-23T04:57:26.360Z,2.20
2022-11-23T04:59:55.381Z,2.20
2022-11-23T05:02:22.973Z,1.90
2022-11-23T05:04:50.528Z,2.00
2022-11-23T05:07:18.231Z,2.47
2022-11-23T05:09:45.829Z,1.83
2022-11-23T05:12:13.383Z,2.13
2022-11-23T05:14:42.860Z,2.15
2022-11-23T05:17:12.137Z,2.28
2022-11-23T05:19:39.928Z,2.20
2022-11-23T05:22:07.691Z,2.00
2022-11-23T05:24:35.259Z,1.80
2022-11-23T05:27:02.826Z,1.85
2022-11-23T05:29:48.895Z,2.10
2022-11-23T05:32:17.822Z,2.35
2022-11-23T05:34:45.414Z,2.30
2022-11-23T05:37:12.954Z,2.40
2022-11-23T05:39:40.496Z,2.13
2022-11-23T05:42:08.222Z,2.00
2022-11-23T05:44:35.849Z,1.98
2022-11-23T05:47:03.450Z,1.92
2022-11-23T05:49:32.616Z,2.30
2022-11-23T05:52:00.350Z,2.17
2022-11-23T05:54:27.920Z,2.05
2022-11-23T05:56:55.524Z,2.10
2022-11-23T05:59:23.196Z,1.90
2022-11-23T06:01:50.790Z,2.10
2022-11-23T06:04:18.412Z,2.35
2022-11-23T06:06:47.424Z,2.25
2022-11-23T06:09:15.001Z,2.15
2022-11-23T06:11:44.428Z,2.20
2022-11-23T06:14:14.454Z,2.20
2022-11-23T06:16:42.249Z,2.10
2022-11-23T06:19:09.852Z,2.10
2022-11-23T06:21:37.440Z,1.98
2022-11-23T06:24:07.230Z,2.42
2022-11-23T06:26:34.841Z,1.92
2022-11-23T06:29:02.501Z,1.83
2022-11-23T06:31:30.099Z,2.00
2022-11-23T06:33:57.685Z,2.00
2022-11-23T06:36:25.257Z,2.00
2022-11-23T06:38:52.855Z,2.05
2022-11-23T06:41:21.723Z,1.90
2022-11-23T06:43:49.284Z,2.25
2022-11-23T06:46:16.843Z,1.80
2022-11-23T06:48:44.553Z,1.67
2022-11-23T06:51:12.229Z,1.90
2022-11-23T06:53:39.786Z,1.92
2022-11-23T06:56:07.998Z,1.83
2022-11-23T06:58:36.911Z,1.70
2022-11-23T07:01:05.435Z,1.83
2022-11-23T07:03:33.140Z,1.88
2022-11-23T07:06:00.723Z,2.00
2022-11-23T07:08:28.336Z,2.08
2022-11-23T07:11:01.112Z,2.03
2022-11-23T07:13:28.695Z,1.95
2022-11-23T07:15:58.303Z,1.90
2022-11-23T07:18:26.088Z,1.80
2022-11-23T07:20:53.795Z,1.90
2022-11-23T07:23:21.373Z,1.85
2022-11-23T07:25:48.928Z,2.03
2022-11-23T07:28:16.500Z,1.70
2022-11-23T07:30:44.343Z,1.80
2022-11-23T07:33:13.535Z,1.80
2022-11-23T07:35:41.446Z,2.00
2022-11-23T07:38:09.151Z,2.00
2022-11-23T07:40:37.136Z,1.60
2022-11-23T07:43:05.115Z,2.00
2022-11-23T07:45:32.695Z,1.90
2022-11-23T07:48:00.861Z,1.88
2022-11-23T07:50:29.829Z,1.70
2022-11-23T07:52:57.519Z,1.70
2022-11-23T07:55:25.134Z,2.00
2022-11-23T07:57:53.297Z,1.52
2022-11-23T08:00:21.507Z,1.50
2022-11-23T08:03:19.366Z,1.80
2022-11-23T08:05:38.048Z,1.60
2022-11-23T08:08:06.084Z,1.80
2022-11-23T08:10:34.408Z,1.67
2022-11-23T08:13:04.999Z,1.70
2022-11-23T08:15:32.647Z,1.77
2022-11-23T08:18:00.902Z,1.60
2022-11-23T08:20:29.318Z,1.45
2022-11-23T08:22:58.376Z,1.80
2022-11-23T08:25:26.124Z,1.50
2022-11-23T08:27:56.459Z,1.40
2022-11-23T08:30:24.155Z,1.20
2022-11-23T08:32:51.720Z,1.40
2022-11-23T08:35:19.408Z,1.45
2022-11-23T08:37:47.072Z,1.30
2022-11-23T08:40:20.657Z,1.58
2022-11-23T08:42:51.354Z,1.25
2022-11-23T08:45:18.944Z,1.33
2022-11-23T08:47:46.520Z,1.23
2022-11-23T08:50:14.214Z,1.30
2022-11-23T08:52:41.810Z,1.42
2022-11-23T08:55:09.785Z,1.40
2022-11-23T08:57:38.724Z,1.35
2022-11-23T09:00:07.328Z,1.10
2022-11-23T09:02:34.921Z,1.30
2022-11-23T09:05:02.526Z,1.38
2022-11-23T09:07:30.212Z,1.35
2022-11-23T09:09:57.793Z,1.05
2022-11-23T09:12:25.360Z,1.30
2022-11-23T09:15:13.255Z,1.17
2022-11-23T09:17:40.904Z,1.25
2022-11-23T09:20:10.160Z,1.15
2022-11-23T09:22:37.764Z,1.30
2022-11-23T09:25:06.631Z,1.30
2022-11-23T09:27:34.347Z,1.40
2022-11-23T09:30:01.903Z,1.27
2022-11-23T09:32:30.852Z,1.20
2022-11-23T09:34:58.392Z,1.60
2022-11-23T09:37:26.029Z,1.35
2022-11-23T09:39:53.566Z,1.35
2022-11-23T09:42:37.950Z,1.10
2022-11-23T09:45:12.767Z,1.15
2022-11-23T09:47:51.492Z,1.10
2022-11-23T09:50:22.831Z,1.17
2022-11-23T09:52:50.403Z,1.20
2022-11-23T09:55:20.398Z,1.35
2022-11-23T09:57:48.150Z,1.10
2022-11-23T10:00:18.570Z,0.90
2022-11-23T10:02:47.503Z,1.10
2022-11-23T10:05:17.867Z,1.10
2022-11-23T10:07:50.912Z,1.20
2022-11-23T10:10:26.651Z,1.02
2022-11-23T10:12:57.567Z,1.05
2022-11-23T10:15:27.222Z,1.10
2022-11-23T10:18:04.494Z,1.10
2022-11-23T10:20:49.660Z,1.15
2022-11-23T10:23:19.407Z,1.00
2022-11-23T10:25:48.497Z,0.98
2022-11-23T10:28:17.094Z,1.00
2022-11-23T10:30:44.841Z,1.10
2022-11-23T10:33:20.442Z,1.30
2022-11-23T10:35:47.993Z,1.08
2022-11-23T10:38:18.999Z,1.02
2022-11-23T10:40:50.431Z,1.10
2022-11-23T10:43:19.540Z,1.17
2022-11-23T10:45:48.373Z,1.25
2022-11-23T10:48:28.346Z,0.90
2022-11-23T10:50:56.110Z,1.02
2022-11-23T10:53:26.261Z,1.00
2022-11-23T10:55:55.034Z,1.20
2022-11-23T10:58:26.740Z,1.10
2022-11-23T11:01:00.014Z,1.00
2022-11-23T11:03:31.406Z,1.00
2022-11-23T11:06:14.406Z,1.33
2022-11-23T11:08:50.704Z,1.20
2022-11-23T11:11:23.384Z,1.10
2022-11-23T11:13:51.036Z,0.98
2022-11-23T11:16:20.592Z,1.10
2022-11-23T11:18:49.523Z,1.17
2022-11-23T11:21:20.908Z,0.90
2022-11-23T11:23:53.116Z,1.00
2022-11-23T11:26:21.629Z,1.02
2022-11-23T11:28:50.295Z,0.88
2022-11-23T11:31:44.373Z,1.08
2022-11-23T11:34:36.665Z,1.00
2022-11-23T11:37:08.864Z,1.02
2022-11-23T11:39:39.917Z,1.33
2022-11-23T11:42:08.676Z,1.00
2022-11-23T11:44:37.923Z,0.90
2022-11-23T11:47:17.275Z,0.90
2022-11-23T11:49:47.091Z,1.00
2022-11-23T11:52:19.045Z,0.98
2022-11-23T11:54:51.754Z,1.23
2022-11-23T11:57:21.788Z,1.02
2022-11-23T11:59:50.415Z,1.00
2022-11-23T12:02:21.457Z,0.90
2022-11-23T12:04:55.719Z,0.90
2022-11-23T12:07:25.750Z,1.10
2022-11-23T12:09:54.029Z,1.13
2022-11-23T12:12:26.640Z,1.17
2022-11-23T12:14:57.220Z,1.02
2022-11-23T12:17:57.260Z,0.90
2022-11-23T12:20:29.422Z,0.77
2022-11-23T12:23:04.444Z,0.88
2022-11-23T12:25:36.177Z,0.90
2022-11-23T12:28:31.201Z,0.75
2022-11-23T12:31:02.383Z,1.08
2022-11-23T12:33:41.470Z,0.85
2022-11-23T12:36:26.968Z,0.63
2022-11-23T12:38:55.995Z,0.98
2022-11-23T12:41:24.740Z,0.90
2022-11-23T12:43:59.709Z,1.08
2022-11-23T12:46:30.026Z,0.73
2022-11-23T12:49:04.199Z,0.68
2022-11-23T12:51:37.263Z,0.93
2022-11-23T12:54:36.308Z,0.77
2022-11-23T12:57:08.995Z,0.90
2022-11-23T12:59:42.874Z,0.93
2022-11-23T13:02:14.822Z,0.77
2022-11-23T13:04:53.823Z,0.70
2022-11-23T13:07:49.407Z,0.75
2022-11-23T13:10:25.006Z,0.70
2022-11-23T13:13:03.928Z,0.70
2022-11-23T13:15:44.207Z,0.82
2022-11-23T13:18:15.012Z,0.80
2022-11-23T13:20:50.384Z,0.70
2022-11-23T13:23:23.457Z,0.80
2022-11-23T13:26:18.451Z,0.68
2022-11-23T13:28:46.547Z,0.65
2022-11-23T13:31:23.510Z,0.70
2022-11-23T13:33:51.744Z,0.73
2022-11-23T13:37:11.194Z,0.70
2022-11-23T13:40:03.673Z,0.82
2022-11-23T13:42:32.855Z,0.60
2022-11-23T13:45:30.963Z,0.52
2022-11-23T13:48:06.565Z,0.50
2022-11-23T13:50:34.104Z,0.70
2022-11-23T13:53:01.784Z,0.60
2022-11-23T13:55:34.561Z,0.60
2022-11-23T13:58:40.561Z,0.95
2022-11-23T14:01:08.691Z,0.70
2022-11-23T14:03:48.516Z,0.70
2022-11-23T14:06:20.688Z,0.60
2022-11-23T14:08:48.566Z,0.80
2022-11-23T14:11:20.744Z,0.93
2022-11-23T14:13:52.845Z,0.80
2022-11-23T14:16:30.138Z,0.70
2022-11-23T14:19:02.776Z,1.15
2022-11-23T14:21:33.916Z,0.60
2022-11-23T14:24:47.503Z,0.70
2022-11-23T14:27:46.856Z,0.55
2022-11-23T14:30:22.971Z,0.73
2022-11-23T14:33:03.503Z,0.77
2022-11-23T14:35:33.442Z,0.63
2022-11-23T14:38:33.593Z,0.60
2022-11-23T14:41:04.327Z,0.63
2022-11-23T14:43:33.311Z,0.93
2022-11-23T14:46:02.247Z,0.80
2022-11-23T14:48:30.585Z,0.70
2022-11-23T14:50:58.747Z,0.82
2022-11-23T14:53:28.621Z,0.63
2022-11-23T14:55:56.535Z,0.63
2022-11-23T14:58:25.407Z,0.70
2022-11-23T15:00:54.355Z,0.95
2022-11-23T15:03:49.243Z,0.95
2022-11-23T15:06:13.480Z,0.95
2022-11-23T15:08:44.552Z,0.65
2022-11-23T15:11:12.924Z,0.98
2022-11-23T15:13:44.176Z,0.85
2022-11-23T15:16:14.214Z,0.85
2022-11-23T15:18:42.444Z,0.70
2022-11-23T15:21:21.341Z,0.77
2022-11-23T15:23:57.076Z,0.93
2022-11-23T15:26:46.913Z,1.27
2022-11-23T15:29:28.938Z,0.90
2022-11-23T15:32:22.317Z,0.82
2022-11-23T15:34:46.217Z,0.95
2022-11-23T15:37:13.842Z,1.13
2022-11-23T15:39:41.407Z,1.10
2022-11-23T15:42:09.939Z,0.77
2022-11-23T15:44:37.502Z,0.80
2022-11-23T15:47:07.339Z,1.10
2022-11-23T15:49:37.775Z,0.88
2022-11-23T15:52:05.620Z,0.98
2022-11-23T15:54:35.978Z,1.00
2022-11-23T15:57:03.867Z,1.40
2022-11-23T15:59:32.789Z,1.13
2022-11-23T16:02:00.664Z,1.30
2022-11-23T16:04:31.190Z,1.13
2022-11-23T16:06:59.027Z,1.15
2022-11-23T16:09:51.093Z,1.08
2022-11-23T16:12:25.509Z,1.10
2022-11-23T16:14:53.399Z,1.40
2022-11-23T16:17:21.847Z,1.02
2022-11-23T16:19:51.275Z,1.10
2022-11-23T16:22:22.373Z,0.90
2022-11-23T16:24:51.251Z,1.38
2022-11-23T16:27:23.660Z,1.08
2022-11-23T16:29:51.516Z,1.05
2022-11-23T16:32:23.960Z,0.95
2022-11-23T16:34:53.180Z,1.00
2022-11-23T16:37:20.904Z,1.00
2022-11-23T16:39:48.489Z,1.38
2022-11-23T16:42:16.289Z,0.90
2022-11-23T16:44:44.181Z,1.33
2022-11-23T16:47:21.769Z,0.82
2022-11-23T16:49:49.635Z,0.90
2022-11-23T16:52:18.696Z,1.10
2022-11-23T16:54:46.288Z,0.80
2022-11-23T16:57:31.977Z,0.80
2022-11-23T16:59:59.876Z,0.82
2022-11-23T17:02:27.468Z,0.98
2022-11-23T17:04:55.708Z,0.80
2022-11-23T17:07:24.746Z,1.00
2022-11-23T17:09:52.377Z,0.80
2022-11-23T17:12:20.818Z,1.00
2022-11-23T17:14:48.921Z,0.85
2022-11-23T17:17:18.268Z,1.20
2022-11-23T17:19:48.163Z,1.08
2022-11-23T17:22:16.309Z,0.98
2022-11-23T17:24:45.296Z,1.00
2022-11-23T17:27:13.655Z,1.00
2022-11-23T17:29:42.391Z,1.40
2022-11-23T17:32:11.328Z,1.00
2022-11-23T17:34:38.908Z,1.00
2022-11-23T17:37:06.655Z,1.08
2022-11-23T17:39:34.632Z,1.38
2022-11-23T17:42:05.212Z,1.10
2022-11-23T17:44:32.925Z,1.05
2022-11-23T17:47:00.715Z,0.98
2022-11-23T17:49:28.537Z,1.00
2022-11-23T17:51:56.310Z,1.10
2022-11-23T17:54:23.916Z,1.10
2022-11-23T17:56:51.776Z,1.42
2022-11-23T17:59:20.748Z,1.20
2022-11-23T18:01:48.387Z,1.35
2022-11-23T18:04:16.144Z,1.20
2022-11-23T18:06:43.724Z,1.10
2022-11-23T18:09:11.938Z,1.10
2022-11-23T18:11:39.514Z,1.08
2022-11-23T18:14:07.196Z,1.20
2022-11-23T18:16:36.178Z,1.13
2022-11-23T18:19:04.532Z,1.10
2022-11-23T18:21:32.159Z,1.10
2022-11-23T18:24:04.287Z,1.30
2022-11-23T18:26:32.376Z,1.60
2022-11-23T18:28:59.938Z,1.50
2022-11-23T18:31:27.801Z,1.60
2022-11-23T18:33:56.829Z,1.90
2022-11-23T18:36:24.473Z,1.65
2022-11-23T18:38:52.060Z,1.75
2022-11-23T18:41:19.705Z,1.42
2022-11-23T18:43:47.284Z,1.70
2022-11-23T18:46:18.985Z,1.67
2022-11-23T18:48:47.056Z,1.90
2022-11-23T18:51:16.064Z,1.80
2022-11-23T18:53:44.802Z,1.65
2022-11-23T18:56:12.586Z,1.85
2022-11-23T18:58:41.082Z,1.65
2022-11-23T19:01:12.212Z,1.50
2022-11-23T19:03:41.178Z,2.00
2022-11-23T19:06:09.149Z,1.75
2022-11-23T19:08:41.178Z,1.98
2022-11-23T19:11:09.315Z,2.10
2022-11-23T19:13:37.841Z,1.70
2022-11-23T19:16:10.527Z,1.88
2022-11-23T19:18:38.214Z,1.95
2022-11-23T19:21:13.040Z,2.20
2022-11-23T19:23:42.252Z,2.05
2022-11-23T19:26:09.816Z,1.95
2022-11-23T19:28:37.422Z,1.70
2022-11-23T19:31:12.074Z,1.85
2022-11-23T19:33:39.761Z,1.85
2022-11-23T19:36:08.002Z,2.17
2022-11-23T19:38:35.713Z,2.25
2022-11-23T19:41:04.669Z,2.30
2022-11-23T19:43:32.614Z,1.92
2022-11-23T19:46:01.086Z,2.88
2022-11-23T19:48:30.229Z,2.20
2022-11-23T19:50:58.226Z,2.17
2022-11-23T19:53:30.644Z,2.25
2022-11-23T19:56:02.060Z,2.20
2022-11-23T19:58:32.290Z,2.22
2022-11-23T20:01:00.812Z,2.08
2022-11-23T20:03:28.447Z,2.20
2022-11-23T20:05:57.291Z,2.00
2022-11-23T20:08:24.973Z,2.00
2022-11-23T20:10:52.622Z,2.00
2022-11-23T20:13:20.201Z,1.50
2022-11-23T20:15:49.438Z,1.75
2022-11-23T20:18:17.464Z,2.00
2022-11-23T20:20:45.827Z,1.75
2022-11-23T20:23:14.685Z,1.80
2022-11-23T20:25:42.439Z,2.00
2022-11-23T20:28:12.302Z,1.80
2022-11-23T20:30:39.924Z,1.80
2022-11-23T20:33:08.897Z,1.90
2022-11-23T20:35:36.608Z,1.70
2022-11-23T20:38:04.892Z,1.70
2022-11-23T20:40:32.573Z,1.70
2022-11-23T20:43:00.159Z,1.88
2022-11-23T20:45:27.968Z,1.80
2022-11-23T20:47:55.709Z,1.58
2022-11-23T20:50:26.765Z,1.80
2022-11-23T20:52:54.542Z,1.73
2022-11-23T20:55:23.503Z,1.60
2022-11-23T20:57:51.572Z,1.73
2022-11-23T21:00:20.487Z,1.73
2022-11-23T21:02:49.853Z,1.58
2022-11-23T21:05:17.687Z,1.80
2022-11-23T21:07:46.788Z,1.58
2022-11-23T21:10:35.248Z,1.40
2022-11-23T21:13:20.453Z,1.45
2022-11-23T21:15:48.058Z,1.80
2022-11-23T21:18:15.880Z,1.70
2022-11-23T21:20:43.547Z,1.60
2022-11-23T21:23:12.471Z,1.85
2022-11-23T21:25:39.999Z,1.52
2022-11-23T21:28:07.592Z,1.50
2022-11-23T21:30:36.688Z,1.60
2022-11-23T21:33:04.449Z,1.45
2022-11-23T21:35:32.083Z,1.67
2022-11-23T21:37:59.962Z,1.50
2022-11-23T21:40:29.297Z,1.50
2022-11-23T21:42:57.114Z,1.50
2022-11-23T21:45:24.804Z,1.40
2022-11-23T21:47:52.423Z,1.58
2022-11-23T21:50:20.015Z,1.30
2022-11-23T21:52:47.628Z,1.50
2022-11-23T21:55:15.305Z,1.30
2022-11-23T21:57:44.235Z,1.77
2022-11-23T22:00:12.653Z,1.70
2022-11-23T22:02:40.189Z,1.40
2022-11-23T22:05:08.226Z,1.60
2022-11-23T22:07:35.920Z,1.60
2022-11-23T22:10:03.615Z,1.48
2022-11-23T22:12:31.196Z,1.48
2022-11-23T22:15:00.429Z,1.80
2022-11-23T22:17:28.503Z,1.58
2022-11-23T22:19:56.061Z,1.38
2022-11-23T22:22:23.646Z,1.48
2022-11-23T22:24:51.199Z,1.38
2022-11-23T22:27:19.529Z,1.42
2022-11-23T22:29:47.075Z,1.35
2022-11-23T22:32:15.983Z,1.20
2022-11-23T22:34:43.720Z,1.33
2022-11-23T22:37:11.285Z,1.30
2022-11-23T22:39:38.918Z,1.40
2022-11-23T22:42:06.519Z,1.58
2022-11-23T22:44:34.569Z,1.20
2022-11-23T22:47:02.388Z,1.48
2022-11-23T22:49:31.323Z,1.40
2022-11-23T22:51:58.992Z,1.30
2022-11-23T22:54:28.407Z,1.33
2022-11-23T22:56:55.991Z,1.42
2022-11-23T22:59:23.573Z,1.27
2022-11-23T23:01:51.508Z,1.25
2022-11-23T23:04:19.060Z,1.60
2022-11-23T23:06:49.759Z,1.30
2022-11-23T23:09:17.344Z,1.60
2022-11-23T23:11:44.928Z,1.50
2022-11-23T23:14:12.513Z,1.50
2022-11-23T23:16:40.214Z,1.20
2022-11-23T23:19:08.056Z,1.45
2022-11-23T23:21:35.593Z,1.38
2022-11-23T23:24:05.653Z,1.60
2022-11-23T23:26:34.581Z,1.40
2022-11-23T23:29:02.134Z,1.20
2022-11-23T23:31:30.315Z,0.95
2022-11-23T23:33:57.963Z,1.40
2022-11-23T23:36:25.614Z,1.40
2022-11-23T23:38:53.242Z,1.30
2022-11-23T23:41:22.174Z,1.20
2022-11-23T23:43:49.782Z,1.35
2022-11-23T23:46:17.605Z,1.13
2022-11-23T23:48:45.420Z,1.10
2022-11-23T23:51:13.699Z,1.30
2022-11-23T23:53:41.400Z,1.25
2022-11-23T23:56:09.858Z,0.98
2022-11-23T23:58:38.764Z,1.00
